createdAt,value
2023-05-13T00:00:15.077Z,2.30
2023-05-13T00:02:41.709Z,1.92
2023-05-13T00:05:08.423Z,2.45
2023-05-13T00:07:34.751Z,1.60
2023-05-13T00:10:01.079Z,2.47
2023-05-13T00:12:27.599Z,2.20
2023-05-13T00:14:54.012Z,2.53
2023-05-13T00:17:20.886Z,2.50
2023-05-13T00:19:47.240Z,2.75
2023-05-13T00:22:13.602Z,2.65
2023-05-13T00:24:39.973Z,2.67
2023-05-13T00:27:06.300Z,2.45
2023-05-13T00:29:32.656Z,2.40
2023-05-13T00:31:59.091Z,2.25
2023-05-13T00:34:25.532Z,2.88
2023-05-13T00:36:52.082Z,2.70
2023-05-13T00:39:18.629Z,2.85
2023-05-13T00:41:45.012Z,3.00
2023-05-13T00:44:12.712Z,2.80
2023-05-13T00:46:40.819Z,2.92
2023-05-13T00:49:07.270Z,2.90
2023-05-13T00:51:33.687Z,3.15
2023-05-13T00:54:00.324Z,3.17
2023-05-13T00:56:27.103Z,2.92
2023-05-13T00:58:53.641Z,3.17
2023-05-13T01:01:43.829Z,2.70
2023-05-13T01:04:23.762Z,2.70
2023-05-13T01:07:08.991Z,3.10
2023-05-13T01:09:44.515Z,2.67
2023-05-13T01:12:29.648Z,2.95
2023-05-13T01:15:17.353Z,2.67
2023-05-13T01:18:00.892Z,2.58
2023-05-13T01:20:28.298Z,3.05
2023-05-13T01:22:54.648Z,2.75
2023-05-13T01:25:21.121Z,3.22
2023-05-13T01:27:47.578Z,3.17
2023-05-13T01:30:14.359Z,2.80
2023-05-13T01:32:41.261Z,3.15
2023-05-13T01:35:10.162Z,2.58
2023-05-13T01:37:37.178Z,2.88
2023-05-13T01:40:14.319Z,2.63
2023-05-13T01:42:43.796Z,3.33
2023-05-13T01:45:10.706Z,2.92
2023-05-13T01:47:37.119Z,3.08
2023-05-13T01:50:03.578Z,3.78
2023-05-13T01:52:29.996Z,3.53
2023-05-13T01:54:56.617Z,3.78
2023-05-13T01:57:23.005Z,3.42
2023-05-13T01:59:49.429Z,3.10
2023-05-13T02:02:15.833Z,3.17
2023-05-13T02:04:42.304Z,3.20
2023-05-13T02:07:08.619Z,4.15
2023-05-13T02:09:34.978Z,3.00
2023-05-13T02:12:01.499Z,3.60
2023-05-13T02:14:27.898Z,3.75
2023-05-13T02:16:54.307Z,3.20
2023-05-13T02:19:20.774Z,3.70
2023-05-13T02:21:47.211Z,3.45
2023-05-13T02:24:14.214Z,3.17
2023-05-13T02:26:41.666Z,3.28
2023-05-13T02:29:08.349Z,3.53
2023-05-13T02:31:35.129Z,3.70
2023-05-13T02:34:01.552Z,3.53
2023-05-13T02:36:27.910Z,3.95
2023-05-13T02:38:54.275Z,3.42
2023-05-13T02:41:20.589Z,3.33
2023-05-13T02:43:46.992Z,4.35
2023-05-13T02:46:13.406Z,3.75
2023-05-13T02:48:39.777Z,3.88
2023-05-13T02:51:06.320Z,3.83
2023-05-13T02:53:32.741Z,4.03
2023-05-13T02:55:59.245Z,3.95
2023-05-13T02:58:25.681Z,4.40
2023-05-13T03:00:52.003Z,4.40
2023-05-13T03:03:18.570Z,4.65
2023-05-13T03:05:45.051Z,3.87
2023-05-13T03:08:11.691Z,4.13
2023-05-13T03:10:38.026Z,4.78
2023-05-13T03:13:04.415Z,3.85
2023-05-13T03:15:30.925Z,3.78
2023-05-13T03:17:57.843Z,5.37
2023-05-13T03:20:24.350Z,4.25
2023-05-13T03:22:50.912Z,3.88
2023-05-13T03:25:17.305Z,4.68
2023-05-13T03:27:43.676Z,4.72
2023-05-13T03:30:10.754Z,4.27
2023-05-13T03:32:37.206Z,4.43
2023-05-13T03:35:04.321Z,4.40
2023-05-13T03:37:30.794Z,4.68
2023-05-13T03:39:57.374Z,4.90
2023-05-13T03:42:23.829Z,4.70
2023-05-13T03:44:51.071Z,5.30
2023-05-13T03:47:17.517Z,4.93
2023-05-13T03:49:43.909Z,5.30
2023-05-13T03:52:10.237Z,4.70
2023-05-13T03:54:36.581Z,5.63
2023-05-13T03:57:02.996Z,5.18
2023-05-13T03:59:29.405Z,5.43
2023-05-13T04:01:55.878Z,6.13
2023-05-13T04:04:22.260Z,5.68
2023-05-13T04:06:48.602Z,5.17
2023-05-13T04:09:15.010Z,5.18
2023-05-13T04:11:41.419Z,5.25
2023-05-13T04:14:07.757Z,5.70
2023-05-13T04:16:34.197Z,4.97
2023-05-13T04:19:00.672Z,5.80
2023-05-13T04:21:27.572Z,5.50
2023-05-13T04:23:53.934Z,5.88
2023-05-13T04:26:21.986Z,5.25
2023-05-13T04:28:48.455Z,5.85
2023-05-13T04:31:14.812Z,6.00
2023-05-13T04:33:41.136Z,5.93
2023-05-13T04:36:07.619Z,5.90
2023-05-13T04:38:33.979Z,6.10
2023-05-13T04:41:00.335Z,6.13
2023-05-13T04:43:27.050Z,5.40
2023-05-13T04:45:53.536Z,5.68
2023-05-13T04:48:20.033Z,6.20
2023-05-13T04:50:47.045Z,6.03
2023-05-13T04:53:14.981Z,5.72
2023-05-13T04:55:41.644Z,6.17
2023-05-13T04:58:08.062Z,6.30
2023-05-13T05:00:34.484Z,6.68
2023-05-13T05:03:00.998Z,7.07
2023-05-13T05:05:27.419Z,6.00
2023-05-13T05:07:53.997Z,5.97
2023-05-13T05:10:20.653Z,5.80
2023-05-13T05:12:48.143Z,5.57
2023-05-13T05:15:17.221Z,5.22
2023-05-13T05:17:44.189Z,6.78
2023-05-13T05:20:11.529Z,5.80
2023-05-13T05:22:38.498Z,5.65
2023-05-13T05:25:05.294Z,5.60
2023-05-13T05:27:31.677Z,5.47
2023-05-13T05:29:58.030Z,6.10
2023-05-13T05:32:24.536Z,5.43
2023-05-13T05:34:50.917Z,6.38
2023-05-13T05:37:17.286Z,6.22
2023-05-13T05:39:43.597Z,6.18
2023-05-13T05:42:09.998Z,5.82
2023-05-13T05:44:36.360Z,5.67
2023-05-13T05:47:02.686Z,5.35
2023-05-13T05:49:28.997Z,6.07
2023-05-13T05:51:55.417Z,5.70
2023-05-13T05:54:21.813Z,6.72
2023-05-13T05:56:48.189Z,5.20
2023-05-13T05:59:14.542Z,6.55
2023-05-13T06:01:41.073Z,5.70
2023-05-13T06:04:07.585Z,6.07
2023-05-13T06:06:34.123Z,6.32
2023-05-13T06:09:00.511Z,5.90
2023-05-13T06:11:26.851Z,6.22
2023-05-13T06:13:53.998Z,6.55
2023-05-13T06:16:20.430Z,5.90
2023-05-13T06:18:46.926Z,5.95
2023-05-13T06:21:13.375Z,5.13
2023-05-13T06:23:40.396Z,5.78
2023-05-13T06:26:06.807Z,6.20
2023-05-13T06:28:33.216Z,5.65
2023-05-13T06:30:59.640Z,6.68
2023-05-13T06:33:26.153Z,5.33
2023-05-13T06:35:53.334Z,6.43
2023-05-13T06:38:19.756Z,5.72
2023-05-13T06:40:46.224Z,6.50
2023-05-13T06:43:14.289Z,6.10
2023-05-13T06:45:40.627Z,6.03
2023-05-13T06:48:07.055Z,6.32
2023-05-13T06:50:33.514Z,6.05
2023-05-13T06:52:59.938Z,5.97
2023-05-13T06:55:26.387Z,6.30
2023-05-13T06:57:53.092Z,4.87
2023-05-13T07:00:19.710Z,5.40
2023-05-13T07:02:46.295Z,5.75
2023-05-13T07:05:12.764Z,4.97
2023-05-13T07:07:39.213Z,5.03
2023-05-13T07:10:05.913Z,5.27
2023-05-13T07:12:33.546Z,4.03
2023-05-13T07:14:59.930Z,4.55
2023-05-13T07:17:26.449Z,4.90
2023-05-13T07:19:52.925Z,4.10
2023-05-13T07:22:19.254Z,4.50
2023-05-13T07:24:45.713Z,4.05
2023-05-13T07:27:12.150Z,4.38
2023-05-13T07:29:38.670Z,4.82
2023-05-13T07:32:06.227Z,4.10
2023-05-13T07:34:32.632Z,4.50
2023-05-13T07:36:59.118Z,4.70
2023-05-13T07:39:26.516Z,4.93
2023-05-13T07:41:53.004Z,4.80
2023-05-13T07:44:19.406Z,4.32
2023-05-13T07:46:45.941Z,4.87
2023-05-13T07:49:12.282Z,4.30
2023-05-13T07:51:38.674Z,3.72
2023-05-13T07:54:05.075Z,4.15
2023-05-13T07:56:31.567Z,4.88
2023-05-13T07:58:57.920Z,3.83
2023-05-13T08:01:24.308Z,4.20
2023-05-13T08:03:50.884Z,3.50
2023-05-13T08:06:17.320Z,4.78
2023-05-13T08:08:43.774Z,5.18
2023-05-13T08:11:10.223Z,4.20
2023-05-13T08:13:36.640Z,3.42
2023-05-13T08:16:03.449Z,4.35
2023-05-13T08:18:30.528Z,3.75
2023-05-13T08:20:56.858Z,3.75
2023-05-13T08:23:33.257Z,3.97
2023-05-13T08:26:07.108Z,4.25
2023-05-13T08:28:33.488Z,4.20
2023-05-13T08:31:02.607Z,4.68
2023-05-13T08:33:30.021Z,4.05
2023-05-13T08:35:57.034Z,3.13
2023-05-13T08:38:23.438Z,3.47
2023-05-13T08:40:49.852Z,4.72
2023-05-13T08:43:16.638Z,4.00
2023-05-13T08:45:47.322Z,4.18
2023-05-13T08:48:18.502Z,4.53
2023-05-13T08:50:45.574Z,3.95
2023-05-13T08:53:13.032Z,4.10
2023-05-13T08:55:42.972Z,3.97
2023-05-13T08:58:09.320Z,3.78
2023-05-13T09:00:36.019Z,3.90
2023-05-13T09:03:02.823Z,4.20
2023-05-13T09:05:29.394Z,4.72
2023-05-13T09:07:57.283Z,3.47
2023-05-13T09:10:23.905Z,3.85
2023-05-13T09:12:55.106Z,4.27
2023-05-13T09:15:24.327Z,3.92
2023-05-13T09:17:55.424Z,4.07
2023-05-13T09:20:25.297Z,3.78
2023-05-13T09:23:03.974Z,4.97
2023-05-13T09:25:30.790Z,3.33
2023-05-13T09:27:59.283Z,3.70
2023-05-13T09:30:33.909Z,4.15
2023-05-13T09:33:19.549Z,4.00
2023-05-13T09:35:52.646Z,4.10
2023-05-13T09:38:21.160Z,3.80
2023-05-13T09:40:57.872Z,3.78
2023-05-13T09:43:26.819Z,3.50
2023-05-13T09:46:00.506Z,3.47
2023-05-13T09:48:29.415Z,4.63
2023-05-13T09:50:57.981Z,3.20
2023-05-13T09:53:25.182Z,3.85
2023-05-13T09:55:54.591Z,3.72
2023-05-13T09:58:21.995Z,3.92
2023-05-13T10:00:48.764Z,2.88
2023-05-13T10:03:15.973Z,3.90
2023-05-13T10:05:43.313Z,3.67
2023-05-13T10:08:12.123Z,4.10
2023-05-13T10:10:39.696Z,4.20
2023-05-13T10:13:13.334Z,4.35
2023-05-13T10:16:00.196Z,3.50
2023-05-13T10:18:28.921Z,4.18
2023-05-13T10:20:56.094Z,3.80
2023-05-13T10:23:24.039Z,4.35
2023-05-13T10:25:53.199Z,3.92
2023-05-13T10:28:20.240Z,3.90
2023-05-13T10:30:49.649Z,4.63
2023-05-13T10:33:16.599Z,3.95
2023-05-13T10:36:07.880Z,3.67
2023-05-13T10:39:02.143Z,4.25
2023-05-13T10:41:41.856Z,3.83
2023-05-13T10:44:09.802Z,3.80
2023-05-13T10:46:39.434Z,3.67
2023-05-13T10:49:06.960Z,4.60
2023-05-13T10:51:33.335Z,4.25
2023-05-13T10:53:59.782Z,3.97
2023-05-13T10:56:28.414Z,3.20
2023-05-13T10:58:59.908Z,3.70
2023-05-13T11:01:33.709Z,3.30
2023-05-13T11:04:02.725Z,2.95
2023-05-13T11:06:34.651Z,4.03
2023-05-13T11:09:01.419Z,3.90
2023-05-13T11:11:33.265Z,3.20
2023-05-13T11:13:59.649Z,3.40
2023-05-13T11:16:26.136Z,2.90
2023-05-13T11:18:53.025Z,3.10
2023-05-13T11:21:30.915Z,2.65
2023-05-13T11:24:04.000Z,3.30
2023-05-13T11:26:56.433Z,3.00
2023-05-13T11:29:34.373Z,2.70
2023-05-13T11:32:02.190Z,2.87
2023-05-13T11:34:29.414Z,2.92
2023-05-13T11:37:04.934Z,2.70
2023-05-13T11:39:32.324Z,2.47
2023-05-13T11:42:01.752Z,3.08
2023-05-13T11:44:28.428Z,2.57
2023-05-13T11:47:00.177Z,2.78
2023-05-13T11:49:36.178Z,2.88
2023-05-13T11:52:04.470Z,2.28
2023-05-13T11:54:31.184Z,2.63
2023-05-13T11:56:57.601Z,3.00
2023-05-13T11:59:24.210Z,2.25
2023-05-13T12:02:01.095Z,2.53
2023-05-13T12:04:30.549Z,2.10
2023-05-13T12:06:57.626Z,2.28
2023-05-13T12:09:24.834Z,2.27
2023-05-13T12:11:55.293Z,2.38
2023-05-13T12:14:22.452Z,2.40
2023-05-13T12:16:49.429Z,2.28
2023-05-13T12:19:15.924Z,2.40
2023-05-13T12:21:42.407Z,1.87
2023-05-13T12:24:21.725Z,2.40
2023-05-13T12:26:49.049Z,2.22
2023-05-13T12:29:15.670Z,1.52
2023-05-13T12:31:44.050Z,1.83
2023-05-13T12:34:10.754Z,1.70
2023-05-13T12:36:38.869Z,3.13
2023-05-13T12:39:06.403Z,1.92
2023-05-13T12:41:34.910Z,1.92
2023-05-13T12:44:08.413Z,2.63
2023-05-13T12:46:35.464Z,1.87
2023-05-13T12:49:04.247Z,1.27
2023-05-13T12:51:30.997Z,1.58
2023-05-13T12:53:58.182Z,1.35
2023-05-13T12:56:25.613Z,1.63
2023-05-13T12:58:55.100Z,1.70
2023-05-13T13:01:22.278Z,1.33
2023-05-13T13:03:49.006Z,1.48
2023-05-13T13:06:15.929Z,1.58
2023-05-13T13:08:42.292Z,2.25
2023-05-13T13:11:09.027Z,1.70
2023-05-13T13:13:38.163Z,1.35
2023-05-13T13:16:05.696Z,2.00
2023-05-13T13:18:32.185Z,2.17
2023-05-13T13:20:58.551Z,1.50
2023-05-13T13:23:25.047Z,1.47
2023-05-13T13:25:51.438Z,1.50
2023-05-13T13:28:17.814Z,1.80
2023-05-13T13:30:46.850Z,1.50
2023-05-13T13:33:15.071Z,1.70
2023-05-13T13:35:43.580Z,1.50
2023-05-13T13:38:10.309Z,1.27
2023-05-13T13:40:36.752Z,1.30
2023-05-13T13:43:04.026Z,1.33
2023-05-13T13:45:31.190Z,1.15
2023-05-13T13:47:59.229Z,1.63
2023-05-13T13:50:26.081Z,1.83
2023-05-13T13:52:52.689Z,1.13
2023-05-13T13:55:20.810Z,1.35
2023-05-13T13:57:47.503Z,1.00
2023-05-13T14:00:15.986Z,1.70
2023-05-13T14:02:43.416Z,1.08
2023-05-13T14:05:11.288Z,1.00
2023-05-13T14:07:37.873Z,1.50
2023-05-13T14:10:05.679Z,1.58
2023-05-13T14:12:32.224Z,1.13
2023-05-13T14:14:58.842Z,0.70
2023-05-13T14:17:25.377Z,1.20
2023-05-13T14:19:54.131Z,1.35
2023-05-13T14:22:22.180Z,1.38
2023-05-13T14:24:48.497Z,0.90
2023-05-13T14:27:14.932Z,0.98
2023-05-13T14:29:41.249Z,1.17
2023-05-13T14:32:07.738Z,1.45
2023-05-13T14:34:34.580Z,1.15
2023-05-13T14:37:00.915Z,1.10
2023-05-13T14:39:27.248Z,1.00
2023-05-13T14:41:53.589Z,1.05
2023-05-13T14:44:19.980Z,1.20
2023-05-13T14:46:46.341Z,0.98
2023-05-13T14:49:12.697Z,0.80
2023-05-13T14:51:39.030Z,0.90
2023-05-13T14:54:05.444Z,0.85
2023-05-13T14:56:31.755Z,0.95
2023-05-13T14:58:58.199Z,1.20
2023-05-13T15:01:24.707Z,1.00
2023-05-13T15:03:51.251Z,0.93
2023-05-13T15:06:17.682Z,0.95
2023-05-13T15:08:44.105Z,1.23
2023-05-13T15:11:10.533Z,1.23
2023-05-13T15:13:38.274Z,1.10
2023-05-13T15:16:05.370Z,1.00
2023-05-13T15:18:31.776Z,0.95
2023-05-13T15:20:58.207Z,1.15
2023-05-13T15:23:24.605Z,0.70
2023-05-13T15:25:51.397Z,1.00
2023-05-13T15:28:17.782Z,1.08
2023-05-13T15:30:44.123Z,1.10
2023-05-13T15:33:10.592Z,0.98
2023-05-13T15:35:37.100Z,0.90
2023-05-13T15:38:03.499Z,0.60
2023-05-13T15:40:29.891Z,1.08
2023-05-13T15:42:56.372Z,1.02
2023-05-13T15:45:22.707Z,1.65
2023-05-13T15:47:49.148Z,0.80
2023-05-13T15:50:16.475Z,0.70
2023-05-13T15:52:42.802Z,0.80
2023-05-13T15:55:09.150Z,0.60
2023-05-13T15:57:35.572Z,1.00
2023-05-13T16:00:01.947Z,1.30
2023-05-13T16:02:35.861Z,0.73
2023-05-13T16:05:02.327Z,0.63
2023-05-13T16:07:28.795Z,1.40
2023-05-13T16:09:55.135Z,1.52
2023-05-13T16:12:21.485Z,1.70
2023-05-13T16:14:47.848Z,1.53
2023-05-13T16:17:14.913Z,1.20
2023-05-13T16:19:41.327Z,1.83
2023-05-13T16:22:32.443Z,1.20
2023-05-13T16:25:01.240Z,1.63
2023-05-13T16:27:29.183Z,1.90
2023-05-13T16:29:56.563Z,1.58
2023-05-13T16:32:23.227Z,1.85
2023-05-13T16:34:49.802Z,1.65
2023-05-13T16:37:16.468Z,1.85
2023-05-13T16:39:42.990Z,1.70
2023-05-13T16:42:09.588Z,2.10
2023-05-13T16:44:36.042Z,2.33
2023-05-13T16:47:02.563Z,1.83
2023-05-13T16:49:29.088Z,2.25
2023-05-13T16:51:55.532Z,2.03
2023-05-13T16:54:21.900Z,2.05
2023-05-13T16:56:50.342Z,2.17
2023-05-13T16:59:22.134Z,2.50
2023-05-13T17:01:49.710Z,1.90
2023-05-13T17:04:16.557Z,1.47
2023-05-13T17:06:43.330Z,1.42
2023-05-13T17:09:10.541Z,1.67
2023-05-13T17:11:37.386Z,1.80
2023-05-13T17:14:04.908Z,2.22
2023-05-13T17:16:31.650Z,2.63
2023-05-13T17:18:59.418Z,2.22
2023-05-13T17:21:26.090Z,2.13
2023-05-13T17:23:52.556Z,1.60
2023-05-13T17:26:19.784Z,1.52
2023-05-13T17:28:46.104Z,2.40
2023-05-13T17:31:12.641Z,1.77
2023-05-13T17:33:39.061Z,2.00
2023-05-13T17:36:05.799Z,2.10
2023-05-13T17:38:32.205Z,2.03
2023-05-13T17:40:59.055Z,2.80
2023-05-13T17:43:25.462Z,1.85
2023-05-13T17:45:51.844Z,2.30
2023-05-13T17:48:18.258Z,2.10
2023-05-13T17:50:44.714Z,1.77
2023-05-13T17:53:11.123Z,2.30
2023-05-13T17:55:37.577Z,2.00
2023-05-13T17:58:03.967Z,2.60
2023-05-13T18:00:30.503Z,2.58
2023-05-13T18:02:56.881Z,2.35
2023-05-13T18:05:23.423Z,2.73
2023-05-13T18:07:49.852Z,1.77
2023-05-13T18:10:16.329Z,2.53
2023-05-13T18:12:42.636Z,2.15
2023-05-13T18:15:09.168Z,2.28
2023-05-13T18:17:35.597Z,1.50
2023-05-13T18:20:01.980Z,1.67
2023-05-13T18:22:28.295Z,2.20
2023-05-13T18:24:54.665Z,2.47
2023-05-13T18:27:21.804Z,2.03
2023-05-13T18:29:48.190Z,1.73
2023-05-13T18:32:14.645Z,2.05
2023-05-13T18:34:40.959Z,2.38
2023-05-13T18:37:07.373Z,2.00
2023-05-13T18:39:33.743Z,2.35
2023-05-13T18:42:00.178Z,1.53
2023-05-13T18:44:26.588Z,1.90
2023-05-13T18:46:53.089Z,1.80
2023-05-13T18:49:19.416Z,2.05
2023-05-13T18:51:45.831Z,2.92
2023-05-13T18:54:12.163Z,1.80
2023-05-13T18:56:38.750Z,2.22
2023-05-13T18:59:05.140Z,2.00
2023-05-13T19:01:31.541Z,1.48
2023-05-13T19:03:58.042Z,2.13
2023-05-13T19:06:24.678Z,1.53
2023-05-13T19:08:51.057Z,1.50
2023-05-13T19:11:17.429Z,1.70
2023-05-13T19:13:47.562Z,1.63
2023-05-13T19:16:15.107Z,1.83
2023-05-13T19:18:41.568Z,1.93
2023-05-13T19:21:08.048Z,1.52
2023-05-13T19:23:34.445Z,1.65
2023-05-13T19:26:00.833Z,1.58
2023-05-13T19:28:28.036Z,1.77
2023-05-13T19:30:54.609Z,1.80
2023-05-13T19:33:21.051Z,1.95
2023-05-13T19:35:47.693Z,1.92
2023-05-13T19:38:14.366Z,1.83
2023-05-13T19:40:40.723Z,1.52
2023-05-13T19:43:07.421Z,3.50
2023-05-13T19:45:34.244Z,1.90
2023-05-13T19:48:00.663Z,1.92
2023-05-13T19:50:27.064Z,2.47
2023-05-13T19:52:54.019Z,2.58
2023-05-13T19:55:20.473Z,1.70
2023-05-13T19:57:47.691Z,2.30
2023-05-13T20:00:14.270Z,2.35
2023-05-13T20:02:40.887Z,2.20
2023-05-13T20:05:10.929Z,2.72
2023-05-13T20:07:37.303Z,2.33
2023-05-13T20:10:04.320Z,2.55
2023-05-13T20:12:30.650Z,2.30
2023-05-13T20:14:58.208Z,3.03
2023-05-13T20:17:25.443Z,2.92
2023-05-13T20:19:55.564Z,3.07
2023-05-13T20:22:22.254Z,3.20
2023-05-13T20:24:50.366Z,3.13
2023-05-13T20:27:17.878Z,3.15
2023-05-13T20:29:47.154Z,3.30
2023-05-13T20:32:14.593Z,3.43
2023-05-13T20:34:41.392Z,3.55
2023-05-13T20:37:07.857Z,3.22
2023-05-13T20:39:34.211Z,3.30
2023-05-13T20:42:00.833Z,3.50
2023-05-13T20:44:27.301Z,3.93
2023-05-13T20:46:53.682Z,3.88
2023-05-13T20:49:20.067Z,3.75
2023-05-13T20:51:47.944Z,4.40
2023-05-13T20:54:15.334Z,4.05
2023-05-13T20:56:41.832Z,3.50
2023-05-13T20:59:08.610Z,4.18
2023-05-13T21:01:35.560Z,5.70
2023-05-13T21:04:04.109Z,4.53
2023-05-13T21:06:30.510Z,4.45
2023-05-13T21:08:56.860Z,3.93
2023-05-13T21:11:23.204Z,4.35
2023-05-13T21:13:49.618Z,4.60
2023-05-13T21:16:16.050Z,4.45
2023-05-13T21:18:42.430Z,4.72
2023-05-13T21:21:12.284Z,4.30
2023-05-13T21:23:40.213Z,4.60
2023-05-13T21:26:07.131Z,5.32
2023-05-13T21:28:33.569Z,5.35
2023-05-13T21:31:00.045Z,5.10
2023-05-13T21:33:27.338Z,4.67
2023-05-13T21:35:54.050Z,5.53
2023-05-13T21:38:20.386Z,5.13
2023-05-13T21:40:46.796Z,5.38
2023-05-13T21:43:13.191Z,5.57
2023-05-13T21:45:40.026Z,4.97
2023-05-13T21:48:06.776Z,5.47
2023-05-13T21:50:34.040Z,5.82
2023-05-13T21:53:00.566Z,5.57
2023-05-13T21:55:26.909Z,5.85
2023-05-13T21:57:53.316Z,5.43
2023-05-13T22:00:21.328Z,5.70
2023-05-13T22:02:50.452Z,6.20
2023-05-13T22:05:17.066Z,6.15
2023-05-13T22:07:43.541Z,6.07
2023-05-13T22:10:10.310Z,5.60
2023-05-13T22:12:36.731Z,6.13
2023-05-13T22:15:03.299Z,6.30
2023-05-13T22:17:29.803Z,5.43
2023-05-13T22:19:56.264Z,6.20
2023-05-13T22:22:22.583Z,5.60
2023-05-13T22:24:48.911Z,5.88
2023-05-13T22:27:15.374Z,5.60
2023-05-13T22:29:41.736Z,6.18
2023-05-13T22:32:08.403Z,6.10
2023-05-13T22:34:34.903Z,5.53
2023-05-13T22:37:01.521Z,6.50
2023-05-13T22:39:27.960Z,6.25
2023-05-13T22:41:54.732Z,5.40
2023-05-13T22:44:22.905Z,6.07
2023-05-13T22:46:49.523Z,7.20
2023-05-13T22:49:15.896Z,7.50
2023-05-13T22:51:42.926Z,6.70
2023-05-13T22:54:09.302Z,6.10
2023-05-13T22:56:35.652Z,6.20
2023-05-13T22:59:02.070Z,6.77
2023-05-13T23:01:28.459Z,5.95
2023-05-13T23:03:54.954Z,6.35
2023-05-13T23:06:21.655Z,6.47
2023-05-13T23:08:48.499Z,6.38
2023-05-13T23:11:14.862Z,6.67
2023-05-13T23:13:41.346Z,6.72
2023-05-13T23:16:07.847Z,7.07
2023-05-13T23:18:34.438Z,6.95
2023-05-13T23:21:01.493Z,6.95
2023-05-13T23:23:27.893Z,6.63
2023-05-13T23:25:54.303Z,7.07
2023-05-13T23:28:20.709Z,7.38
2023-05-13T23:30:47.120Z,7.20
2023-05-13T23:33:13.569Z,7.53
2023-05-13T23:35:39.912Z,8.10
2023-05-13T23:38:06.256Z,7.78
2023-05-13T23:40:32.647Z,7.57
2023-05-13T23:42:59.364Z,7.65
2023-05-13T23:45:25.892Z,7.57
2023-05-13T23:47:52.427Z,7.90
2023-05-13T23:50:18.942Z,7.65
2023-05-13T23:52:45.417Z,7.63
2023-05-13T23:55:11.897Z,8.45
2023-05-13T23:57:38.270Z,7.50
